createdAt,value
2019-03-24T00:00:35.286Z,78.01
2019-03-24T00:03:06.659Z,77.92
2019-03-24T00:05:38.084Z,77.89
2019-03-24T00:08:10.167Z,78.00
2019-03-24T00:10:41.604Z,78.31
2019-03-24T00:13:13.173Z,78.69
2019-03-24T00:15:44.822Z,79.18
2019-03-24T00:18:16.175Z,79.06
2019-03-24T00:20:47.696Z,78.46
2019-03-24T00:23:19.243Z,78.79
2019-03-24T00:25:50.669Z,79.20
2019-03-24T00:28:22.124Z,79.03
2019-03-24T00:30:53.452Z,78.85
2019-03-24T00:33:24.998Z,78.82
2019-03-24T00:35:56.430Z,78.84
2019-03-24T00:38:27.779Z,79.00
2019-03-24T00:40:59.112Z,79.57
2019-03-24T00:43:30.454Z,80.48
2019-03-24T00:46:01.829Z,80.60
2019-03-24T00:48:33.376Z,80.26
2019-03-24T00:51:04.784Z,80.35
2019-03-24T00:53:36.131Z,81.14
2019-03-24T00:56:07.452Z,81.07
2019-03-24T00:58:38.904Z,80.85
2019-03-24T01:01:10.229Z,80.27
2019-03-24T01:03:41.575Z,80.97
2019-03-24T01:06:12.912Z,80.92
2019-03-24T01:08:45.661Z,81.48
2019-03-24T01:11:16.985Z,82.19
2019-03-24T01:13:49.480Z,81.36
2019-03-24T01:16:20.763Z,81.21
2019-03-24T01:18:52.427Z,81.07
2019-03-24T01:21:23.755Z,81.98
2019-03-24T01:23:56.591Z,81.68
2019-03-24T01:26:32.781Z,81.87
2019-03-24T01:29:05.194Z,82.08
2019-03-24T01:31:36.531Z,81.40
2019-03-24T01:34:07.889Z,81.47
2019-03-24T01:36:39.225Z,81.19
2019-03-24T01:39:10.576Z,81.60
2019-03-24T01:41:42.209Z,81.50
2019-03-24T01:44:13.559Z,81.29
2019-03-24T01:46:44.886Z,82.10
2019-03-24T01:49:16.237Z,81.96
2019-03-24T01:51:48.983Z,82.27
2019-03-24T01:54:20.326Z,82.94
2019-03-24T01:56:51.649Z,83.00
2019-03-24T01:59:22.996Z,83.48
2019-03-24T02:01:54.322Z,83.88
2019-03-24T02:04:25.672Z,83.56
2019-03-24T02:06:57.001Z,83.10
2019-03-24T02:09:29.340Z,83.46
2019-03-24T02:12:00.666Z,83.17
2019-03-24T02:14:32.301Z,82.91
2019-03-24T02:17:03.640Z,82.54
2019-03-24T02:19:35.053Z,83.30
2019-03-24T02:22:06.577Z,83.53
2019-03-24T02:24:38.134Z,83.67
2019-03-24T02:27:09.858Z,83.63
2019-03-24T02:29:41.201Z,83.50
2019-03-24T02:32:12.537Z,83.42
2019-03-24T02:34:45.152Z,83.36
2019-03-24T02:37:16.580Z,83.13
2019-03-24T02:39:48.031Z,83.44
2019-03-24T02:42:19.360Z,82.79
2019-03-24T02:44:50.979Z,83.04
2019-03-24T02:47:23.851Z,83.56
2019-03-24T02:49:55.208Z,83.22
2019-03-24T02:52:26.834Z,83.87
2019-03-24T02:54:59.791Z,83.43
2019-03-24T02:57:31.217Z,83.24
2019-03-24T03:00:05.830Z,83.29
2019-03-24T03:02:42.136Z,83.22
2019-03-24T03:05:13.487Z,83.52
2019-03-24T03:07:44.889Z,82.82
2019-03-24T03:10:17.084Z,82.26
2019-03-24T03:12:48.403Z,82.63
2019-03-24T03:15:19.759Z,83.12
2019-03-24T03:17:51.076Z,82.95
2019-03-24T03:20:22.633Z,82.97
2019-03-24T03:22:55.246Z,82.85
2019-03-24T03:25:26.592Z,83.87
2019-03-24T03:27:57.916Z,83.47
2019-03-24T03:30:29.286Z,84.15
2019-03-24T03:33:00.634Z,84.50
2019-03-24T03:35:31.972Z,84.38
2019-03-24T03:38:03.312Z,84.33
2019-03-24T03:40:34.667Z,84.88
2019-03-24T03:43:06.411Z,84.49
2019-03-24T03:45:39.257Z,84.23
2019-03-24T03:48:10.961Z,84.21
2019-03-24T03:50:42.299Z,84.48
2019-03-24T03:53:13.635Z,84.27
2019-03-24T03:55:44.985Z,84.16
2019-03-24T03:58:16.320Z,84.77
2019-03-24T04:00:47.653Z,84.96
2019-03-24T04:03:18.982Z,84.56
2019-03-24T04:05:51.496Z,84.20
2019-03-24T04:08:22.830Z,83.80
2019-03-24T04:10:55.164Z,84.12
2019-03-24T04:13:26.482Z,83.92
2019-03-24T04:15:57.829Z,83.96
2019-03-24T04:18:29.143Z,83.96
2019-03-24T04:21:00.500Z,84.39
2019-03-24T04:23:31.928Z,83.72
2019-03-24T04:26:03.731Z,84.73
2019-03-24T04:28:35.051Z,84.57
2019-03-24T04:31:06.403Z,84.63
2019-03-24T04:33:37.734Z,84.02
2019-03-24T04:36:09.073Z,83.86
2019-03-24T04:38:40.395Z,84.04
2019-03-24T04:41:11.739Z,83.52
2019-03-24T04:43:43.068Z,82.99
2019-03-24T04:46:14.709Z,83.03
2019-03-24T04:48:46.026Z,83.17
2019-03-24T04:51:17.370Z,83.49
2019-03-24T04:53:48.698Z,83.29
2019-03-24T04:56:20.043Z,83.01
2019-03-24T04:58:51.369Z,82.92
2019-03-24T05:01:22.716Z,82.68
2019-03-24T05:03:54.042Z,82.83
2019-03-24T05:06:25.393Z,82.96
2019-03-24T05:08:56.714Z,82.25
2019-03-24T05:11:28.274Z,82.34
2019-03-24T05:13:59.600Z,82.48
2019-03-24T05:16:30.940Z,81.96
2019-03-24T05:19:02.265Z,82.03
2019-03-24T05:21:33.600Z,81.46
2019-03-24T05:24:05.230Z,81.44
2019-03-24T05:26:36.577Z,81.09
2019-03-24T05:29:07.909Z,81.17
2019-03-24T05:31:39.258Z,81.18
2019-03-24T05:34:10.582Z,81.14
2019-03-24T05:36:41.922Z,80.46
2019-03-24T05:39:13.266Z,80.15
2019-03-24T05:41:46.094Z,79.10
2019-03-24T05:44:17.444Z,79.57
2019-03-24T05:46:48.796Z,78.90
2019-03-24T05:49:20.125Z,77.39
2019-03-24T05:51:53.010Z,77.89
2019-03-24T05:54:24.833Z,77.17
2019-03-24T05:56:56.177Z,76.78
2019-03-24T05:59:27.509Z,70.57
2019-03-24T06:01:58.878Z,68.47
2019-03-24T06:04:30.214Z,64.37
2019-03-24T06:07:01.576Z,60.72
2019-03-24T06:09:32.925Z,62.06
2019-03-24T06:12:05.293Z,58.10
2019-03-24T06:14:36.623Z,57.11
2019-03-24T06:17:07.999Z,54.28
2019-03-24T06:19:39.352Z,54.02
2019-03-24T06:22:10.713Z,48.60
2019-03-24T06:24:42.045Z,47.43
2019-03-24T06:27:13.415Z,45.79
2019-03-24T06:29:44.762Z,45.05
2019-03-24T06:32:16.128Z,44.46
2019-03-24T06:34:47.463Z,46.12
2019-03-24T06:37:18.836Z,45.25
2019-03-24T06:39:50.178Z,43.78
2019-03-24T06:42:21.535Z,42.67
2019-03-24T06:44:52.867Z,42.84
2019-03-24T06:47:25.464Z,40.58
2019-03-24T06:49:56.811Z,38.58
2019-03-24T06:52:28.564Z,39.45
2019-03-24T06:54:59.993Z,37.89
2019-03-24T06:57:31.340Z,37.79
2019-03-24T07:00:02.834Z,37.38
2019-03-24T07:02:34.193Z,37.23
2019-03-24T07:05:08.411Z,37.05
2019-03-24T07:07:39.893Z,37.63
2019-03-24T07:10:13.726Z,37.37
2019-03-24T07:12:46.011Z,36.93
2019-03-24T07:15:17.341Z,37.21
2019-03-24T07:17:50.318Z,37.79
2019-03-24T07:20:21.655Z,36.74
2019-03-24T07:22:53.009Z,36.31
2019-03-24T07:25:24.460Z,35.20
2019-03-24T07:27:56.998Z,34.95
2019-03-24T07:30:28.333Z,36.22
2019-03-24T07:32:59.759Z,36.53
2019-03-24T07:35:36.529Z,37.07
2019-03-24T07:38:08.753Z,35.72
2019-03-24T07:40:42.305Z,34.74
2019-03-24T07:43:13.656Z,31.66
2019-03-24T07:45:45.301Z,33.14
2019-03-24T07:48:21.319Z,32.47
2019-03-24T07:50:55.235Z,32.40
2019-03-24T07:53:26.593Z,33.13
2019-03-24T07:55:59.020Z,32.98
2019-03-24T07:58:30.381Z,32.78
2019-03-24T08:01:01.718Z,31.96
2019-03-24T08:03:33.190Z,31.40
2019-03-24T08:06:04.535Z,32.76
2019-03-24T08:08:43.959Z,31.93
2019-03-24T08:11:09.035Z,33.61
2019-03-24T08:13:52.859Z,33.72
2019-03-24T08:16:15.017Z,32.57
2019-03-24T08:18:46.382Z,32.65
2019-03-24T08:21:18.098Z,32.77
2019-03-24T08:23:49.461Z,32.90
2019-03-24T08:26:20.793Z,35.03
2019-03-24T08:28:52.167Z,35.41
2019-03-24T08:31:25.371Z,37.79
2019-03-24T08:33:57.043Z,37.90
2019-03-24T08:36:28.391Z,38.89
2019-03-24T08:38:59.744Z,40.25
2019-03-24T08:41:31.082Z,39.91
2019-03-24T08:44:02.438Z,38.61
2019-03-24T08:46:33.777Z,36.53
2019-03-24T08:49:07.819Z,35.93
2019-03-24T08:51:40.289Z,35.98
2019-03-24T08:54:18.220Z,35.16
2019-03-24T08:56:50.141Z,36.38
2019-03-24T08:59:21.482Z,35.62
2019-03-24T09:01:52.822Z,35.23
2019-03-24T09:04:24.181Z,35.88
2019-03-24T09:06:55.579Z,35.88
2019-03-24T09:09:26.931Z,36.25
2019-03-24T09:11:58.268Z,36.38
2019-03-24T09:14:30.471Z,35.20
2019-03-24T09:17:01.816Z,33.57
2019-03-24T09:19:33.168Z,35.46
2019-03-24T09:22:04.498Z,35.97
2019-03-24T09:24:36.151Z,34.26
2019-03-24T09:27:07.589Z,34.20
2019-03-24T09:29:38.945Z,32.46
2019-03-24T09:32:10.272Z,33.44
2019-03-24T09:34:41.639Z,34.20
2019-03-24T09:37:12.957Z,32.85
2019-03-24T09:39:44.310Z,32.97
2019-03-24T09:42:15.650Z,33.84
2019-03-24T09:44:47.005Z,32.90
2019-03-24T09:47:18.342Z,34.20
2019-03-24T09:49:49.703Z,35.03
2019-03-24T09:52:22.095Z,35.74
2019-03-24T09:54:54.160Z,36.49
2019-03-24T09:57:25.597Z,34.59
2019-03-24T09:59:56.952Z,34.51
2019-03-24T10:02:28.303Z,35.59
2019-03-24T10:05:00.489Z,37.79
2019-03-24T10:07:31.856Z,38.28
2019-03-24T10:10:04.582Z,37.15
2019-03-24T10:12:35.929Z,37.98
2019-03-24T10:15:08.628Z,35.57
2019-03-24T10:17:39.954Z,36.72
2019-03-24T10:20:11.328Z,34.61
2019-03-24T10:22:42.673Z,35.09
2019-03-24T10:25:14.327Z,33.74
2019-03-24T10:27:45.653Z,32.98
2019-03-24T10:30:20.731Z,34.64
2019-03-24T10:32:52.567Z,32.87
2019-03-24T10:35:27.505Z,33.39
2019-03-24T10:38:03.365Z,31.98
2019-03-24T10:40:35.138Z,31.97
2019-03-24T10:43:22.268Z,31.28
2019-03-24T10:46:15.229Z,33.76
2019-03-24T10:48:54.946Z,33.66
2019-03-24T10:51:34.200Z,34.44
2019-03-24T10:54:08.538Z,31.12
2019-03-24T10:56:40.238Z,32.06
2019-03-24T10:59:13.658Z,34.08
2019-03-24T11:01:45.019Z,33.70
2019-03-24T11:04:16.486Z,33.13
2019-03-24T11:06:49.432Z,32.10
2019-03-24T11:09:20.866Z,31.29
2019-03-24T11:11:52.214Z,32.18
2019-03-24T11:14:23.543Z,32.23
2019-03-24T11:16:55.849Z,34.07
2019-03-24T11:19:35.269Z,33.04
2019-03-24T11:22:00.305Z,36.42
2019-03-24T11:24:31.738Z,36.59
2019-03-24T11:27:03.128Z,37.17
2019-03-24T11:29:34.465Z,36.13
2019-03-24T11:32:05.814Z,36.84
2019-03-24T11:34:37.151Z,35.71
2019-03-24T11:37:09.759Z,36.38
2019-03-24T11:39:41.041Z,36.51
2019-03-24T11:42:14.715Z,36.25
2019-03-24T11:44:46.055Z,36.29
2019-03-24T11:47:26.547Z,34.96
2019-03-24T11:49:52.102Z,35.73
2019-03-24T11:52:24.976Z,35.28
2019-03-24T11:54:56.307Z,34.46
2019-03-24T11:57:27.663Z,34.63
2019-03-24T11:59:59.596Z,34.50
2019-03-24T12:02:30.939Z,34.80
2019-03-24T12:05:02.383Z,33.51
2019-03-24T12:07:33.847Z,33.12
2019-03-24T12:10:08.154Z,34.87
2019-03-24T12:12:40.474Z,35.02
2019-03-24T12:15:11.816Z,32.78
2019-03-24T12:17:45.456Z,33.39
2019-03-24T12:20:16.891Z,32.46
2019-03-24T12:22:49.984Z,32.48
2019-03-24T12:25:21.317Z,32.04
2019-03-24T12:27:52.676Z,31.72
2019-03-24T12:30:24.225Z,33.20
2019-03-24T12:32:55.576Z,32.50
2019-03-24T12:35:26.919Z,32.86
2019-03-24T12:37:58.277Z,32.35
2019-03-24T12:40:29.725Z,33.46
2019-03-24T12:43:01.071Z,31.88
2019-03-24T12:45:33.649Z,32.88
2019-03-24T12:48:05.270Z,32.54
2019-03-24T12:50:38.241Z,33.37
2019-03-24T12:53:09.588Z,33.07
2019-03-24T12:55:40.905Z,32.88
2019-03-24T12:58:12.281Z,31.93
2019-03-24T13:00:45.326Z,32.78
2019-03-24T13:03:16.680Z,34.27
2019-03-24T13:05:48.007Z,31.93
2019-03-24T13:08:19.361Z,32.28
2019-03-24T13:10:51.191Z,31.59
2019-03-24T13:13:22.549Z,31.52
2019-03-24T13:15:53.886Z,31.95
2019-03-24T13:18:26.098Z,30.58
2019-03-24T13:20:57.432Z,29.92
2019-03-24T13:23:28.777Z,30.03
2019-03-24T13:26:00.096Z,30.41
2019-03-24T13:28:31.443Z,31.57
2019-03-24T13:31:03.086Z,31.47
2019-03-24T13:33:34.426Z,31.77
2019-03-24T13:36:07.393Z,33.54
2019-03-24T13:38:38.736Z,33.70
2019-03-24T13:41:10.074Z,32.64
2019-03-24T13:43:41.420Z,33.43
2019-03-24T13:46:12.771Z,33.23
2019-03-24T13:48:45.745Z,33.56
2019-03-24T13:51:17.069Z,33.70
2019-03-24T13:53:50.274Z,33.33
2019-03-24T13:56:23.898Z,32.73
2019-03-24T13:58:56.875Z,31.54
2019-03-24T14:01:28.589Z,31.52
2019-03-24T14:03:59.938Z,32.05
2019-03-24T14:06:31.288Z,31.71
2019-03-24T14:09:03.545Z,30.87
2019-03-24T14:11:37.248Z,32.14
2019-03-24T14:14:10.028Z,32.44
2019-03-24T14:16:41.381Z,32.15
2019-03-24T14:19:12.738Z,31.59
2019-03-24T14:21:44.090Z,31.94
2019-03-24T14:24:19.862Z,32.22
2019-03-24T14:26:51.195Z,31.16
2019-03-24T14:29:24.042Z,31.45
2019-03-24T14:31:55.379Z,30.15
2019-03-24T14:34:28.527Z,30.00
2019-03-24T14:36:59.888Z,27.57
2019-03-24T14:39:35.020Z,26.21
2019-03-24T14:42:06.394Z,28.43
2019-03-24T14:44:37.947Z,27.96
2019-03-24T14:47:09.289Z,28.31
2019-03-24T14:49:42.517Z,28.22
2019-03-24T14:52:14.077Z,29.31
2019-03-24T14:54:45.507Z,28.98
2019-03-24T14:57:16.836Z,30.37
2019-03-24T14:59:49.751Z,30.37
2019-03-24T15:02:21.101Z,30.35
2019-03-24T15:04:55.708Z,30.69
2019-03-24T15:07:29.366Z,31.47
2019-03-24T15:10:02.586Z,30.74
2019-03-24T15:12:36.069Z,31.03
2019-03-24T15:15:08.065Z,30.92
2019-03-24T15:17:39.563Z,30.50
2019-03-24T15:20:12.004Z,30.60
2019-03-24T15:22:44.651Z,30.38
2019-03-24T15:25:17.014Z,31.09
2019-03-24T15:27:48.379Z,31.19
2019-03-24T15:30:19.750Z,29.85
2019-03-24T15:32:53.412Z,30.10
2019-03-24T15:35:27.169Z,29.21
2019-03-24T15:38:08.067Z,28.32
2019-03-24T15:40:31.557Z,29.01
2019-03-24T15:43:04.525Z,28.00
2019-03-24T15:45:35.892Z,28.46
2019-03-24T15:48:07.220Z,28.73
2019-03-24T15:50:38.591Z,28.08
2019-03-24T15:53:09.916Z,28.43
2019-03-24T15:55:41.293Z,29.59
2019-03-24T15:58:13.897Z,29.16
2019-03-24T16:00:47.088Z,30.21
2019-03-24T16:03:18.456Z,28.89
2019-03-24T16:05:50.506Z,29.14
2019-03-24T16:08:21.901Z,29.34
2019-03-24T16:10:54.529Z,29.68
2019-03-24T16:13:25.885Z,31.21
2019-03-24T16:15:57.562Z,31.79
2019-03-24T16:18:29.217Z,32.64
2019-03-24T16:21:01.631Z,32.61
2019-03-24T16:23:33.080Z,32.04
2019-03-24T16:26:04.457Z,31.70
2019-03-24T16:28:37.865Z,32.19
2019-03-24T16:31:11.418Z,32.48
2019-03-24T16:33:42.856Z,33.31
2019-03-24T16:36:17.465Z,32.92
2019-03-24T16:38:49.359Z,33.86
2019-03-24T16:41:20.919Z,34.68
2019-03-24T16:43:52.252Z,34.57
2019-03-24T16:46:23.642Z,35.21
2019-03-24T16:48:55.297Z,34.74
2019-03-24T16:51:26.657Z,34.16
2019-03-24T16:53:58.028Z,34.40
2019-03-24T16:56:30.848Z,34.58
2019-03-24T16:59:02.297Z,35.78
2019-03-24T17:01:33.682Z,35.70
2019-03-24T17:04:05.224Z,35.45
2019-03-24T17:06:36.588Z,35.60
2019-03-24T17:09:09.062Z,36.73
2019-03-24T17:11:40.432Z,35.76
2019-03-24T17:14:11.805Z,37.47
2019-03-24T17:16:43.182Z,37.40
2019-03-24T17:19:16.624Z,37.01
2019-03-24T17:21:50.160Z,37.50
2019-03-24T17:24:23.269Z,37.82
2019-03-24T17:27:05.796Z,39.17
2019-03-24T17:29:37.149Z,39.69
2019-03-24T17:32:08.509Z,39.53
2019-03-24T17:34:40.019Z,41.17
2019-03-24T17:37:11.376Z,39.98
2019-03-24T17:39:42.715Z,41.01
2019-03-24T17:42:14.185Z,41.29
2019-03-24T17:44:46.651Z,41.15
2019-03-24T17:47:18.005Z,41.56
2019-03-24T17:49:50.973Z,42.13
2019-03-24T17:52:22.338Z,43.26
2019-03-24T17:54:53.861Z,43.46
2019-03-24T17:57:25.647Z,44.26
2019-03-24T17:59:59.986Z,44.56
2019-03-24T18:02:31.428Z,44.05
2019-03-24T18:05:07.714Z,45.57
2019-03-24T18:07:42.030Z,47.78
2019-03-24T18:10:17.200Z,46.35
2019-03-24T18:12:48.542Z,45.75
2019-03-24T18:15:19.893Z,45.74
2019-03-24T18:17:51.275Z,45.59
2019-03-24T18:20:37.030Z,45.33
2019-03-24T18:23:11.380Z,46.08
2019-03-24T18:25:45.037Z,45.37
2019-03-24T18:28:16.405Z,45.52
2019-03-24T18:30:48.246Z,46.32
2019-03-24T18:33:19.677Z,46.31
2019-03-24T18:35:51.195Z,45.60
2019-03-24T18:38:22.553Z,46.64
2019-03-24T18:40:53.965Z,47.18
2019-03-24T18:43:25.600Z,47.28
2019-03-24T18:45:59.502Z,47.52
2019-03-24T18:48:31.621Z,48.38
2019-03-24T18:51:04.523Z,50.32
2019-03-24T18:53:35.897Z,46.75
2019-03-24T18:56:07.237Z,44.13
2019-03-24T18:58:38.587Z,43.88
2019-03-24T19:01:10.000Z,43.55
2019-03-24T19:03:41.350Z,43.37
2019-03-24T19:06:12.689Z,43.08
2019-03-24T19:08:44.037Z,43.51
2019-03-24T19:11:15.370Z,43.48
2019-03-24T19:13:46.708Z,42.27
2019-03-24T19:16:19.593Z,42.61
2019-03-24T19:18:50.929Z,42.43
2019-03-24T19:21:24.288Z,42.38
2019-03-24T19:23:56.053Z,43.61
2019-03-24T19:26:29.251Z,42.80
2019-03-24T19:29:00.634Z,42.57
2019-03-24T19:31:34.637Z,42.20
2019-03-24T19:34:06.063Z,42.41
2019-03-24T19:36:37.764Z,43.14
2019-03-24T19:39:09.915Z,42.29
2019-03-24T19:41:43.165Z,41.92
2019-03-24T19:44:14.556Z,42.21
2019-03-24T19:46:45.963Z,42.00
2019-03-24T19:49:17.409Z,42.21
2019-03-24T19:51:48.755Z,42.53
2019-03-24T19:54:20.413Z,42.68
2019-03-24T19:56:51.738Z,42.99
2019-03-24T19:59:23.288Z,43.17
2019-03-24T20:01:55.718Z,43.71
2019-03-24T20:04:27.038Z,43.89
2019-03-24T20:06:59.714Z,44.07
2019-03-24T20:09:31.572Z,44.19
2019-03-24T20:12:02.900Z,44.48
2019-03-24T20:14:35.882Z,44.58
2019-03-24T20:17:07.448Z,44.70
2019-03-24T20:19:38.767Z,44.70
2019-03-24T20:22:11.179Z,45.31
2019-03-24T20:24:44.346Z,45.29
2019-03-24T20:27:17.278Z,45.53
2019-03-24T20:29:49.425Z,46.18
2019-03-24T20:32:23.081Z,45.75
2019-03-24T20:34:54.487Z,46.18
2019-03-24T20:37:26.511Z,46.64
2019-03-24T20:40:00.381Z,46.82
2019-03-24T20:42:33.858Z,47.20
2019-03-24T20:45:07.906Z,47.25
2019-03-24T20:47:41.564Z,47.17
2019-03-24T20:50:13.305Z,47.75
2019-03-24T20:52:46.178Z,47.83
2019-03-24T20:55:17.694Z,48.83
2019-03-24T20:57:51.513Z,49.03
2019-03-24T21:00:35.626Z,49.50
2019-03-24T21:03:16.574Z,49.79
2019-03-24T21:05:52.615Z,50.07
2019-03-24T21:08:53.403Z,49.67
2019-03-24T21:11:27.759Z,49.65
2019-03-24T21:14:00.550Z,49.95
2019-03-24T21:16:32.995Z,49.84
2019-03-24T21:19:04.355Z,49.87
2019-03-24T21:21:37.068Z,50.32
2019-03-24T21:24:09.254Z,50.81
2019-03-24T21:26:40.585Z,52.45
2019-03-24T21:29:11.919Z,53.47
2019-03-24T21:31:43.383Z,53.40
2019-03-24T21:34:15.747Z,53.75
2019-03-24T21:36:47.437Z,54.16
2019-03-24T21:39:18.922Z,54.59
2019-03-24T21:41:51.773Z,55.20
2019-03-24T21:44:23.179Z,55.53
2019-03-24T21:46:55.962Z,55.43
2019-03-24T21:49:28.465Z,55.76
2019-03-24T21:51:59.855Z,56.18
2019-03-24T21:54:31.192Z,58.06
2019-03-24T21:57:03.104Z,57.97
2019-03-24T21:59:35.505Z,58.51
2019-03-24T22:02:07.019Z,58.79
2019-03-24T22:04:38.650Z,58.65
2019-03-24T22:07:11.933Z,59.70
2019-03-24T22:09:44.893Z,59.77
2019-03-24T22:12:19.000Z,60.04
2019-03-24T22:14:50.364Z,60.52
2019-03-24T22:17:31.493Z,60.62
2019-03-24T22:20:09.764Z,61.28
2019-03-24T22:22:48.504Z,62.78
2019-03-24T22:25:20.741Z,62.26
2019-03-24T22:27:52.090Z,62.50
2019-03-24T22:30:23.447Z,62.69
2019-03-24T22:32:57.399Z,63.51
2019-03-24T22:35:33.587Z,63.04
2019-03-24T22:38:06.924Z,63.29
2019-03-24T22:40:39.800Z,62.98
2019-03-24T22:43:12.985Z,63.91
2019-03-24T22:45:53.597Z,63.99
2019-03-24T22:48:33.618Z,65.08
2019-03-24T22:51:14.179Z,64.76
2019-03-24T22:53:48.850Z,66.21
2019-03-24T22:56:20.515Z,66.00
2019-03-24T22:58:51.851Z,65.82
2019-03-24T23:01:28.700Z,66.83
2019-03-24T23:04:00.042Z,67.42
2019-03-24T23:06:34.539Z,67.01
2019-03-24T23:09:09.236Z,67.52
2019-03-24T23:11:41.698Z,68.77
2019-03-24T23:14:13.855Z,70.66
2019-03-24T23:16:48.197Z,70.01
2019-03-24T23:19:19.550Z,70.51
2019-03-24T23:21:52.516Z,70.85
2019-03-24T23:24:23.868Z,69.80
2019-03-24T23:26:55.200Z,69.37
2019-03-24T23:29:26.538Z,69.29
2019-03-24T23:31:57.859Z,69.34
2019-03-24T23:34:32.449Z,69.48
2019-03-24T23:37:04.851Z,69.31
2019-03-24T23:39:36.263Z,69.79
2019-03-24T23:42:07.596Z,69.45
2019-03-24T23:44:38.930Z,69.46
2019-03-24T23:47:10.249Z,69.38
2019-03-24T23:49:46.019Z,69.64
2019-03-24T23:52:18.256Z,69.56
2019-03-24T23:54:49.578Z,71.13
2019-03-24T23:57:21.399Z,71.75
2019-03-24T23:59:52.826Z,72.01
